Tioga, Illinois
Current Conditions -  °F | °C
As of 4:06 PM on Saturday 25 Oct 2014 (Local Time) from KUIN Reporting Station
Haze Haze  
Wind Chill: 76°   Ceiling: Unl
Heat Index: 76°   Visibility: 4mi
Dew Point: 44°   Wind: 7mph
Humidity: 32%   Direction: 320°NW
Pressure: 30.02"   Gusts: NA
Location:  40.0927°N, 91.2943°W
Report Text: KUIN 252106Z AUTO 32006KT 4SM HZ CLR 24/07 A3002 RMK AO2 T02440067
Loading
Personal Weather Stations






























Interactive Weather Map
Tropical Storm Tracking
New forecast layout! Learn more

10-Day Weather Forecast

Advertisements
Track Severe Weather on mobile